Northwestern — WDE5199 — position and weather

sailwx.info

Track history (hours):
 
Tides and Currents Weather Stations Pressure Air Temp Water Temp Dewpoint Dewpoint Depression Visibility Wind Speed Wind Dir Waves Ship Positions

Northwestern

Owner: Northwestern LLC, Seattle, WA. More information available from US FCC via Universal Licensing System and Coast Guard Vessel Documentation Center.

Last reported at 2017-Mar-09 07:33 UTC. Time now 2017-May-30 12:58 UTC.
Position N 47°40' W 122°23'.
Warning: this ship's position is months out of date.

Length 38 m; draft 4.3 m.

Type: Fishing. MMSI: 367363350.

Date/timePositionNaut miles runAvg speedWind from/ knotsBaromVisibWave heightAir tempDewpointWater temp
2017-Mar-09 07:33N 47°40' W 122°23'1 0.9
2017-Mar-09 06:33N 47°40' W 122°25'9 9.3
2017-Mar-09 05:33N 47°49' W 122°28'1010.0
2017-Mar-09 04:33N 47°58' W 122°36'17 8.5
2017-Mar-09 02:31N 48°11' W 122°53'9 9.2
2017-Mar-09 01:33N 48°12' W 123°06'9 9.4
2017-Mar-09 00:33N 48°12' W 123°20'9 9.1
2017-Mar-08 23:33N 48°12' W 123°34'1010.4
2017-Mar-08 22:33N 48°12' W 123°49'1211.6
2017-Mar-08 21:33N 48°16' W 124°06'1211.9
2017-Mar-08 20:33N 48°21' W 124°22'1111.4
2017-Mar-08 19:33N 48°26' W 124°38'1110.9
2017-Mar-08 18:33N 48°32' W 124°51'10 9.8
2017-Mar-08 17:30N 48°36' W 125°06'9 9.7
2017-Mar-08 16:33N 48°40' W 125°18'10 9.6
2017-Mar-08 15:33N 48°44' W 125°31'10 9.9
2017-Mar-08 14:33N 48°49' W 125°44'1010.2
2017-Mar-08 13:33N 48°53' W 125°58'1010.3
2017-Mar-08 12:33N 48°58' W 126°12'3110.2
2017-Mar-08 09:28N 49°11' W 126°56'  
Track history (hours):
 
Tides and Currents Weather Stations Pressure Air Temp Water Temp Dewpoint Dewpoint Depression Visibility Wind Speed Wind Dir Waves Ship Positions

Northwestern

Owner: Northwestern LLC, Seattle, WA. More information available from US FCC via Universal Licensing System and Coast Guard Vessel Documentation Center.

Last reported at 2017-Mar-09 07:33 UTC. Time now 2017-May-30 12:58 UTC.
Position N 47°40' W 122°23'.
Warning: this ship's position is months out of date.

Length 38 m; draft 4.3 m.

Type: Fishing. MMSI: 367363350.

Date/timePositionNaut miles runAvg speedWind from/ knotsBaromVisibWave heightAir tempDewpointWater temp
2017-Mar-09 07:33N 47°40' W 122°23'1 0.9
2017-Mar-09 06:33N 47°40' W 122°25'9 9.3
2017-Mar-09 05:33N 47°49' W 122°28'1010.0
2017-Mar-09 04:33N 47°58' W 122°36'17 8.5
2017-Mar-09 02:31N 48°11' W 122°53'9 9.2
2017-Mar-09 01:33N 48°12' W 123°06'9 9.4
2017-Mar-09 00:33N 48°12' W 123°20'9 9.1
2017-Mar-08 23:33N 48°12' W 123°34'1010.4
2017-Mar-08 22:33N 48°12' W 123°49'1211.6
2017-Mar-08 21:33N 48°16' W 124°06'1211.9
2017-Mar-08 20:33N 48°21' W 124°22'1111.4
2017-Mar-08 19:33N 48°26' W 124°38'1110.9
2017-Mar-08 18:33N 48°32' W 124°51'10 9.8
2017-Mar-08 17:30N 48°36' W 125°06'9 9.7
2017-Mar-08 16:33N 48°40' W 125°18'10 9.6
2017-Mar-08 15:33N 48°44' W 125°31'10 9.9
2017-Mar-08 14:33N 48°49' W 125°44'1010.2
2017-Mar-08 13:33N 48°53' W 125°58'1010.3
2017-Mar-08 12:33N 48°58' W 126°12'3110.2
2017-Mar-08 09:28N 49°11' W 126°56'  

Dump ship's entire track history